Time;durP1;ratioP1;P1;durP2;ratioP2;P2;SDS_P1;SDS_P2;PMS_P1;PMS_P2;Temp;Humidity;BMP_temperature;BMP_pressure;BME280_temperature;BME280_humidity;BME280_pressure;Samples;Min_cycle;Max_cycle;Signal;HPM_P1;HPM_P2
2023/03/08 00:00:33;;;;;;;8.90;5.93;;;5.70;86.10;;;;;;5008225;28;20222;-67
2023/03/08 00:02:59;;;;;;;8.37;6.67;;;5.90;86.10;;;;;;5007615;28;20901;-67
2023/03/08 00:05:25;;;;;;;7.93;6.05;;;5.10;85.60;;;;;;5008493;28;20921;-68
2023/03/08 00:07:54;;;;;;;8.80;6.53;;;5.20;85.80;;;;;;5008925;28;20198;-68
2023/03/08 00:10:20;;;;;;;7.90;6.15;;;5.70;85.70;;;;;;5006702;28;20684;-68
2023/03/08 00:12:46;;;;;;;10.32;6.80;;;5.60;85.10;;;;;;5008660;28;20213;-68
2023/03/08 00:15:11;;;;;;;8.30;6.63;;;5.30;85.60;;;;;;5008832;28;20214;-67
2023/03/08 00:17:38;;;;;;;10.93;6.13;;;5.90;86.50;;;;;;5005973;28;20198;-68
2023/03/08 00:20:09;;;;;;;8.70;6.32;;;6.00;86.80;;;;;;5006639;28;20541;-68
2023/03/08 00:22:39;;;;;;;9.07;7.38;;;5.80;86.80;;;;;;5008973;28;20182;-67
2023/03/08 00:25:07;;;;;;;9.20;7.00;;;5.90;87.10;;;;;;5006375;28;20758;-67
2023/03/08 00:27:34;;;;;;;7.22;6.43;;;6.00;87.10;;;;;;5007707;28;20221;-68
2023/03/08 00:29:59;;;;;;;9.43;6.70;;;5.70;87.10;;;;;;5008130;28;20214;-68
2023/03/08 00:32:26;;;;;;;8.87;6.67;;;6.40;87.60;;;;;;5008635;28;20276;-68
2023/03/08 00:34:52;;;;;;;8.95;6.43;;;5.80;86.70;;;;;;5006846;28;20190;-68
2023/03/08 00:37:18;;;;;;;8.63;6.75;;;5.40;86.40;;;;;;5008842;28;20186;-68
2023/03/08 00:39:44;;;;;;;6.95;5.82;;;6.10;87.20;;;;;;5010390;28;20289;-67
2023/03/08 00:42:09;;;;;;;7.10;6.23;;;5.90;87.00;;;;;;5012116;28;20269;-68
2023/03/08 00:44:35;;;;;;;8.30;6.20;;;5.90;87.00;;;;;;5011921;28;20195;-68
2023/03/08 00:47:00;;;;;;;8.70;7.30;;;5.90;86.90;;;;;;5012217;28;20222;-68
2023/03/08 00:49:26;;;;;;;9.40;6.90;;;6.50;87.80;;;;;;5011182;28;20400;-67
2023/03/08 00:51:52;;;;;;;8.73;6.53;;;5.80;87.10;;;;;;5012195;28;20672;-68
2023/03/08 00:54:17;;;;;;;7.57;6.50;;;5.80;87.20;;;;;;5012087;28;20656;-67
2023/03/08 00:56:43;;;;;;;9.27;7.00;;;5.70;87.20;;;;;;5011052;28;20285;-68
2023/03/08 00:59:08;;;;;;;9.27;6.77;;;5.80;87.50;;;;;;5013836;28;20211;-68
2023/03/08 01:01:34;;;;;;;10.70;6.63;;;5.80;87.00;;;;;;5012381;28;20222;-68
2023/03/08 01:04:01;;;;;;;10.90;7.10;;;5.70;86.80;;;;;;5011494;28;20207;-68
2023/03/08 01:06:26;;;;;;;8.82;7.28;;;5.70;87.30;;;;;;5012110;28;20645;-67
2023/03/08 01:08:52;;;;;;;9.70;7.20;;;5.70;87.70;;;;;;5010097;28;20312;-67
2023/03/08 01:11:22;;;;;;;12.13;7.40;;;5.70;87.20;;;;;;5012051;28;20240;-68
2023/03/08 01:13:49;;;;;;;9.68;7.50;;;5.80;88.20;;;;;;5010844;28;20277;-68
2023/03/08 01:16:19;;;;;;;7.80;6.80;;;5.90;88.50;;;;;;5026992;28;20180;-68
2023/03/08 01:18:45;;;;;;;9.82;6.40;;;5.70;88.40;;;;;;5011058;28;20202;-68
2023/03/08 01:21:11;;;;;;;9.80;7.10;;;5.40;88.80;;;;;;5011721;28;20554;-68
2023/03/08 01:23:36;;;;;;;9.50;7.20;;;5.70;89.30;;;;;;5011261;28;20853;-68
2023/03/08 01:26:05;;;;;;;8.73;7.70;;;5.50;89.50;;;;;;5009725;28;20193;-68
2023/03/08 01:28:31;;;;;;;8.60;7.32;;;5.40;90.00;;;;;;5011458;28;20461;-68
2023/03/08 01:31:10;;;;;;;12.95;8.23;;;5.20;90.00;;;;;;5010588;28;20210;-68
2023/03/08 01:33:35;;;;;;;10.70;7.57;;;5.30;90.00;;;;;;5006993;28;20178;-68
2023/03/08 01:36:06;;;;;;;9.00;7.35;;;5.20;90.10;;;;;;5010690;28;20205;-67
2023/03/08 01:38:32;;;;;;;9.85;7.10;;;5.30;90.20;;;;;;5010170;28;20977;-67
2023/03/08 01:40:59;;;;;;;10.73;7.60;;;5.20;90.40;;;;;;5009547;28;20196;-67
2023/03/08 01:43:29;;;;;;;11.07;8.05;;;4.80;90.30;;;;;;5011202;28;20452;-68
2023/03/08 01:46:35;;;;;;;9.18;7.18;;;5.20;90.30;;;;;;5010830;28;20186;-68
2023/03/08 01:49:24;;;;;;;8.57;7.43;;;4.60;90.30;;;;;;5007551;28;20316;-68
2023/03/08 01:51:53;;;;;;;9.80;7.72;;;5.00;90.70;;;;;;5009414;28;20236;-68
2023/03/08 01:54:24;;;;;;;9.02;6.90;;;4.40;90.60;;;;;;5008152;28;20341;-67
2023/03/08 01:56:54;;;;;;;9.40;7.38;;;4.70;90.90;;;;;;5010532;28;20193;-68
2023/03/08 01:59:21;;;;;;;8.18;6.65;;;4.80;91.20;;;;;;5010643;28;20306;-68
2023/03/08 02:01:48;;;;;;;11.27;8.43;;;5.10;91.40;;;;;;5009928;28;20198;-68
2023/03/08 02:04:14;;;;;;;10.70;8.02;;;4.80;91.30;;;;;;5007071;28;20617;-68
2023/03/08 02:06:41;;;;;;;8.60;7.18;;;5.00;91.30;;;;;;5010694;28;20197;-67
2023/03/08 02:09:07;;;;;;;9.30;8.27;;;4.90;91.70;;;;;;5009444;28;20214;-67
2023/03/08 02:11:35;;;;;;;10.38;8.32;;;4.80;91.80;;;;;;5009786;28;20231;-68
2023/03/08 02:14:01;;;;;;;9.45;7.45;;;4.90;91.90;;;;;;5010788;28;20185;-68
2023/03/08 02:16:27;;;;;;;10.32;7.82;;;4.50;91.80;;;;;;5010555;28;20194;-68
2023/03/08 02:19:04;;;;;;;10.27;7.33;;;4.80;91.90;;;;;;5006636;28;20641;-68
2023/03/08 02:21:31;;;;;;;8.70;6.85;;;4.20;91.70;;;;;;5009262;28;20422;-67
2023/03/08 02:24:06;;;;;;;11.15;7.65;;;4.80;92.00;;;;;;5009258;28;20562;-68
2023/03/08 02:26:34;;;;;;;9.38;7.10;;;4.80;92.10;;;;;;5012678;28;20311;-68
2023/03/08 02:29:00;;;;;;;9.77;6.85;;;4.30;91.50;;;;;;5010320;28;20210;-68
2023/03/08 02:31:26;;;;;;;11.87;7.37;;;5.00;92.00;;;;;;5008788;28;20693;-68
2023/03/08 02:33:51;;;;;;;12.70;8.27;;;4.70;91.90;;;;;;5009900;28;20245;-67
2023/03/08 02:36:17;;;;;;;8.83;7.93;;;4.40;91.70;;;;;;5008973;28;20592;-67
2023/03/08 02:38:43;;;;;;;11.47;7.90;;;4.60;91.70;;;;;;5006788;28;20248;-68
2023/03/08 02:41:08;;;;;;;10.73;6.77;;;4.90;91.90;;;;;;5007092;28;20252;-68
2023/03/08 02:43:34;;;;;;;11.23;7.63;;;4.20;91.60;;;;;;5010144;28;20194;-68
2023/03/08 02:45:59;;;;;;;10.10;7.50;;;4.70;91.60;;;;;;5007859;28;20201;-68
2023/03/08 02:48:25;;;;;;;11.30;6.97;;;4.70;91.40;;;;;;5009749;28;20248;-68
2023/03/08 02:50:51;;;;;;;10.50;7.60;;;4.80;91.90;;;;;;5009297;28;20224;-68
2023/03/08 02:53:16;;;;;;;11.60;7.60;;;5.00;91.90;;;;;;5008961;28;20722;-67
2023/03/08 02:55:42;;;;;;;10.13;7.30;;;4.90;91.80;;;;;;5007586;28;20790;-67
2023/03/08 02:58:09;;;;;;;11.17;7.17;;;4.90;91.70;;;;;;5009347;28;20526;-68
2023/03/08 03:00:35;;;;;;;8.07;6.50;;;4.40;91.30;;;;;;5010258;28;20281;-68
2023/03/08 03:03:01;;;;;;;10.25;6.70;;;5.00;91.60;;;;;;5008975;28;20190;-68
2023/03/08 03:05:27;;;;;;;9.27;6.87;;;5.00;91.60;;;;;;5009998;28;20541;-68
2023/03/08 03:07:54;;;;;;;9.70;6.90;;;5.10;91.60;;;;;;5010250;28;20456;-68
2023/03/08 03:10:20;;;;;;;9.32;6.90;;;5.10;91.50;;;;;;5006856;28;20214;-67
2023/03/08 03:12:45;;;;;;;9.27;6.85;;;5.50;91.60;;;;;;5009198;28;20313;-68
2023/03/08 03:15:11;;;;;;;9.37;7.07;;;5.00;91.30;;;;;;5009534;28;20285;-68
2023/03/08 03:17:37;;;;;;;10.07;7.53;;;4.70;91.20;;;;;;5010879;28;20195;-68
2023/03/08 03:20:08;;;;;;;11.38;6.93;;;5.00;91.10;;;;;;5008816;28;20512;-68
2023/03/08 03:22:34;;;;;;;7.97;6.53;;;5.10;91.20;;;;;;5009421;28;20194;-68
2023/03/08 03:25:00;;;;;;;7.93;6.47;;;5.10;91.20;;;;;;5005884;28;20188;-68
2023/03/08 03:27:25;;;;;;;7.73;6.90;;;5.10;90.90;;;;;;5008759;28;20272;-68
2023/03/08 03:29:51;;;;;;;9.60;7.00;;;5.30;91.30;;;;;;5009262;28;20699;-68
2023/03/08 03:32:17;;;;;;;9.37;6.90;;;5.20;91.00;;;;;;5009310;28;20174;-68
2023/03/08 03:34:43;;;;;;;7.93;6.50;;;4.60;90.60;;;;;;5022670;28;20602;-68
2023/03/08 03:37:08;;;;;;;7.77;6.40;;;4.60;90.80;;;;;;5007355;28;20205;-68
2023/03/08 03:39:37;;;;;;;9.60;6.93;;;5.30;90.90;;;;;;5004907;28;20655;-68
2023/03/08 03:42:07;;;;;;;11.07;7.53;;;5.00;91.00;;;;;;5009366;28;20200;-67
2023/03/08 03:44:33;;;;;;;9.13;6.95;;;5.00;91.10;;;;;;5006716;28;20190;-68
2023/03/08 03:46:58;;;;;;;8.00;6.57;;;5.10;91.00;;;;;;5008445;28;20678;-68
2023/03/08 03:49:24;;;;;;;10.70;6.40;;;5.10;91.00;;;;;;5007492;28;20219;-68
2023/03/08 03:51:50;;;;;;;9.47;6.80;;;5.00;90.90;;;;;;5008559;28;20538;-68
2023/03/08 03:54:15;;;;;;;10.30;6.50;;;5.30;91.10;;;;;;5006616;28;20264;-68
2023/03/08 03:56:41;;;;;;;10.50;7.57;;;5.00;90.70;;;;;;5009157;28;20814;-68
2023/03/08 03:59:06;;;;;;;10.23;7.27;;;5.60;91.10;;;;;;5008226;28;20210;-68
2023/03/08 04:01:32;;;;;;;9.87;6.47;;;5.30;90.80;;;;;;5007405;28;20243;-68
2023/03/08 04:03:58;;;;;;;9.90;7.00;;;5.20;91.00;;;;;;5009067;28;20886;-67
2023/03/08 04:06:29;;;;;;;8.50;6.85;;;4.60;90.80;;;;;;5007404;28;20444;-68
2023/03/08 04:09:01;;;;;;;10.30;7.32;;;5.20;91.20;;;;;;5003822;28;20233;-68
2023/03/08 04:11:31;;;;;;;8.30;6.88;;;5.10;91.10;;;;;;5003592;28;20309;-68
2023/03/08 04:13:56;;;;;;;11.35;6.90;;;4.60;90.50;;;;;;5007921;28;20213;-68
2023/03/08 04:16:25;;;;;;;11.20;7.20;;;5.30;91.00;;;;;;5006196;28;20656;-68
2023/03/08 04:18:56;;;;;;;10.20;7.28;;;4.80;90.60;;;;;;5005366;28;20565;-68
2023/03/08 04:21:22;;;;;;;8.75;6.00;;;5.20;91.00;;;;;;5007949;28;21094;-68
2023/03/08 04:23:48;;;;;;;9.95;5.90;;;5.40;91.00;;;;;;5007146;28;20197;-68
2023/03/08 04:26:14;;;;;;;9.90;6.40;;;5.10;90.90;;;;;;5008464;28;20197;-68
2023/03/08 04:28:40;;;;;;;12.80;7.03;;;5.30;91.20;;;;;;5008282;28;20214;-68
2023/03/08 04:31:24;;;;;;;8.93;5.93;;;5.30;91.20;;;;;;5008613;28;20228;-68
2023/03/08 04:33:51;;;;;;;10.00;7.55;;;4.80;91.00;;;;;;5038143;28;20183;-68
2023/03/08 04:36:17;;;;;;;8.70;6.50;;;5.30;91.40;;;;;;5009032;28;20183;-68
2023/03/08 04:38:44;;;;;;;9.00;6.85;;;5.00;91.20;;;;;;5004635;28;20206;-68
2023/03/08 04:41:13;;;;;;;9.43;6.82;;;5.10;91.40;;;;;;5005670;28;20216;-68
2023/03/08 04:44:07;;;;;;;10.40;6.60;;;5.30;91.60;;;;;;5007747;28;20187;-68
2023/03/08 04:46:33;;;;;;;8.77;6.80;;;4.70;91.20;;;;;;5000644;28;20772;-68
2023/03/08 04:48:59;;;;;;;11.40;7.00;;;5.20;91.30;;;;;;5006777;28;20305;-68
2023/03/08 04:51:25;;;;;;;12.73;7.43;;;4.60;91.10;;;;;;5007763;28;20219;-68
2023/03/08 04:53:51;;;;;;;8.43;6.70;;;5.20;91.30;;;;;;5007460;28;20656;-68
2023/03/08 04:56:17;;;;;;;9.03;7.77;;;5.50;91.50;;;;;;5008480;28;20183;-68
2023/03/08 04:58:44;;;;;;;9.98;6.65;;;5.70;91.60;;;;;;5007884;28;20206;-68
2023/03/08 05:01:21;;;;;;;10.32;7.22;;;5.30;91.20;;;;;;5008417;28;22305;-68
2023/03/08 05:03:50;;;;;;;9.13;6.53;;;5.40;91.30;;;;;;5007728;28;20555;-68
2023/03/08 05:06:16;;;;;;;11.40;7.38;;;5.40;91.20;;;;;;5008922;28;20189;-68
2023/03/08 05:08:42;;;;;;;9.35;7.07;;;5.30;91.20;;;;;;5006637;28;20213;-68
2023/03/08 05:11:08;;;;;;;10.37;7.30;;;5.30;91.30;;;;;;5006171;28;20221;-68
2023/03/08 05:13:37;;;;;;;13.00;7.65;;;4.90;91.00;;;;;;5008515;28;20472;-68
2023/03/08 05:16:04;;;;;;;10.55;8.82;;;5.70;90.90;;;;;;5006687;28;20182;-67
2023/03/08 05:18:30;;;;;;;10.07;7.75;;;5.70;90.60;;;;;;5008156;28;20244;-68
2023/03/08 05:20:58;;;;;;;11.33;7.60;;;6.00;91.40;;;;;;5005410;28;20234;-67
2023/03/08 05:23:25;;;;;;;12.65;8.27;;;5.50;91.20;;;;;;5023495;28;20195;-67
2023/03/08 05:25:53;;;;;;;10.80;7.80;;;5.20;91.30;;;;;;5006854;28;20194;-68
2023/03/08 05:28:20;;;;;;;10.20;7.93;;;5.20;91.10;;;;;;5011631;28;20270;-68
2023/03/08 05:30:46;;;;;;;10.85;8.13;;;5.60;91.40;;;;;;5010871;28;20213;-70
2023/03/08 05:33:12;;;;;;;13.27;9.30;;;5.60;91.30;;;;;;5008278;28;20782;-68
2023/03/08 05:35:38;;;;;;;10.13;7.47;;;5.70;91.30;;;;;;5008725;28;20193;-68
2023/03/08 05:38:03;;;;;;;13.73;8.07;;;5.80;90.80;;;;;;5009431;28;20188;-68
2023/03/08 05:40:29;;;;;;;9.37;7.77;;;5.30;90.90;;;;;;5008267;28;20206;-67
2023/03/08 05:42:54;;;;;;;8.90;7.40;;;5.80;90.90;;;;;;5010019;28;20187;-68
2023/03/08 05:45:20;;;;;;;12.47;8.40;;;5.80;91.00;;;;;;5025470;28;20566;-68
2023/03/08 05:47:46;;;;;;;10.43;7.57;;;5.70;90.80;;;;;;5008441;28;20195;-68
2023/03/08 05:50:12;;;;;;;10.90;8.00;;;6.00;91.00;;;;;;5009492;28;20598;-67
2023/03/08 05:52:37;;;;;;;10.10;7.28;;;5.60;90.70;;;;;;5007871;28;20189;-68
2023/03/08 05:55:04;;;;;;;10.10;8.47;;;5.70;90.80;;;;;;5008758;28;20191;-68
2023/03/08 05:57:30;;;;;;;9.60;7.40;;;5.60;90.80;;;;;;5007566;28;20201;-68
2023/03/08 05:59:55;;;;;;;9.63;7.37;;;6.10;91.00;;;;;;5007883;28;20266;-68
2023/03/08 06:02:21;;;;;;;12.37;8.90;;;5.20;90.50;;;;;;5010449;28;20198;-69
2023/03/08 06:04:46;;;;;;;10.53;8.27;;;6.20;91.20;;;;;;5010170;28;20249;-67
2023/03/08 06:07:12;;;;;;;10.60;8.43;;;5.90;91.00;;;;;;5009330;28;20434;-69
2023/03/08 06:09:38;;;;;;;11.90;8.20;;;5.90;91.10;;;;;;5007970;28;20233;-70
2023/03/08 06:12:04;;;;;;;12.27;8.57;;;6.00;91.20;;;;;;5009401;28;20695;-71
2023/03/08 06:14:29;;;;;;;13.40;9.37;;;6.30;91.10;;;;;;5009354;28;20675;-71
2023/03/08 06:16:55;;;;;;;13.83;9.27;;;6.00;91.10;;;;;;5000738;28;20446;-68
2023/03/08 06:19:20;;;;;;;10.87;8.43;;;5.50;91.00;;;;;;5010020;28;20720;-68
2023/03/08 06:21:46;;;;;;;12.43;8.70;;;6.00;91.30;;;;;;5014782;28;20199;-68
2023/03/08 06:24:11;;;;;;;12.30;8.97;;;6.10;91.30;;;;;;5008605;28;20558;-68
2023/03/08 06:26:37;;;;;;;13.53;9.37;;;6.20;91.40;;;;;;5010345;28;20195;-67
2023/03/08 06:29:03;;;;;;;17.63;10.20;;;6.20;91.60;;;;;;5006849;28;20245;-65
2023/03/08 06:31:28;;;;;;;12.20;8.43;;;6.20;91.90;;;;;;5008164;28;20301;-68
2023/03/08 06:33:54;;;;;;;12.87;9.00;;;6.30;91.80;;;;;;5010036;28;20187;-68
2023/03/08 06:36:20;;;;;;;11.43;9.30;;;6.50;91.60;;;;;;5009785;28;20441;-68
2023/03/08 06:38:47;;;;;;;12.15;9.10;;;6.50;91.60;;;;;;5006237;28;20218;-65
2023/03/08 06:41:14;;;;;;;12.18;9.80;;;6.30;91.40;;;;;;5008945;28;20182;-65
2023/03/08 06:43:41;;;;;;;12.77;9.43;;;6.70;91.50;;;;;;5009077;28;20210;-66
2023/03/08 06:46:15;;;;;;;13.00;10.70;;;6.50;91.50;;;;;;5008249;28;20230;-66
2023/03/08 06:48:41;;;;;;;12.38;9.75;;;6.40;91.40;;;;;;5009536;28;20706;-65
2023/03/08 06:51:07;;;;;;;14.67;10.17;;;6.40;91.50;;;;;;5007025;28;20215;-65
2023/03/08 06:53:35;;;;;;;14.37;10.27;;;6.70;91.40;;;;;;5009345;28;20540;-65
2023/03/08 06:56:02;;;;;;;13.48;10.45;;;6.40;91.00;;;;;;5009045;28;20219;-68
2023/03/08 06:58:27;;;;;;;13.75;9.48;;;6.40;90.90;;;;;;5006779;28;20606;-68
2023/03/08 07:00:54;;;;;;;13.70;10.20;;;6.60;91.00;;;;;;5007460;28;20188;-67
2023/03/08 07:03:19;;;;;;;11.50;9.10;;;6.70;91.00;;;;;;5011249;28;20194;-68
2023/03/08 07:05:45;;;;;;;13.80;10.40;;;6.50;90.80;;;;;;5010008;28;20190;-67
2023/03/08 07:08:11;;;;;;;13.23;9.80;;;6.60;90.90;;;;;;5009405;28;20190;-68
2023/03/08 07:10:36;;;;;;;17.50;10.77;;;6.70;91.00;;;;;;5007138;28;20297;-69
2023/03/08 07:13:02;;;;;;;13.30;9.70;;;7.30;91.10;;;;;;5005164;28;20209;-69
2023/03/08 07:15:28;;;;;;;11.82;8.85;;;6.90;90.70;;;;;;5009606;28;20595;-68
2023/03/08 07:17:55;;;;;;;14.80;8.97;;;6.80;90.70;;;;;;5010400;28;20266;-69
2023/03/08 07:20:22;;;;;;;12.70;9.40;;;6.80;90.60;;;;;;5007816;28;20222;-66
2023/03/08 07:22:48;;;;;;;11.60;8.63;;;7.10;90.60;;;;;;5008009;28;20642;-69
2023/03/08 07:25:16;;;;;;;10.30;8.50;;;7.60;90.60;;;;;;5006026;28;20226;-66
2023/03/08 07:27:42;;;;;;;12.15;9.45;;;6.90;90.40;;;;;;5007735;28;20565;-71
2023/03/08 07:30:11;;;;;;;16.35;10.60;;;7.10;90.30;;;;;;5007991;28;20607;-71
2023/03/08 07:32:39;;;;;;;12.65;9.40;;;7.20;90.20;;;;;;5006334;28;20677;-70
2023/03/08 07:35:06;;;;;;;11.25;9.00;;;7.00;90.20;;;;;;5007008;28;20641;-70
2023/03/08 07:37:32;;;;;;;12.00;8.95;;;6.80;90.40;;;;;;5006310;28;20570;-71
2023/03/08 07:39:58;;;;;;;13.10;9.40;;;7.00;90.30;;;;;;5004379;28;20574;-70
2023/03/08 07:42:23;;;;;;;14.40;9.27;;;7.00;90.20;;;;;;5007505;28;20183;-70
2023/03/08 07:44:49;;;;;;;13.17;9.20;;;6.90;90.20;;;;;;5007427;28;20262;-68
2023/03/08 07:47:15;;;;;;;12.70;9.67;;;7.20;90.30;;;;;;5006008;28;20496;-67
2023/03/08 07:49:40;;;;;;;13.90;8.83;;;7.00;90.40;;;;;;5005521;28;20210;-66
2023/03/08 07:52:06;;;;;;;12.53;8.83;;;7.10;90.30;;;;;;5007150;28;20262;-69
2023/03/08 07:54:32;;;;;;;12.20;9.70;;;7.00;90.40;;;;;;5005298;28;20183;-71
2023/03/08 07:56:57;;;;;;;14.20;9.50;;;7.70;90.80;;;;;;5006337;28;20207;-67
2023/03/08 07:59:23;;;;;;;14.33;9.70;;;7.50;90.80;;;;;;5004897;28;20206;-68
2023/03/08 08:01:48;;;;;;;13.10;8.80;;;7.20;90.70;;;;;;5007362;28;20402;-68
2023/03/08 08:04:14;;;;;;;11.33;8.93;;;7.40;90.90;;;;;;5006537;28;20206;-67
2023/03/08 08:06:40;;;;;;;12.68;8.70;;;6.70;90.60;;;;;;5007450;28;20223;-67
2023/03/08 08:09:07;;;;;;;13.30;9.10;;;7.40;91.50;;;;;;5006486;28;20295;-69
2023/03/08 08:11:36;;;;;;;12.50;9.20;;;7.70;91.90;;;;;;5007645;28;20459;-71
2023/03/08 08:14:02;;;;;;;12.38;8.65;;;7.40;92.50;;;;;;5006848;28;20380;-74
2023/03/08 08:16:28;;;;;;;10.43;8.73;;;7.40;93.20;;;;;;5003702;28;20614;-68
2023/03/08 08:18:54;;;;;;;11.17;7.50;;;6.70;93.30;;;;;;5006202;28;20231;-68
2023/03/08 08:21:20;;;;;;;13.57;8.67;;;7.40;93.80;;;;;;5007991;28;20338;-68
2023/03/08 08:23:46;;;;;;;9.27;7.43;;;7.40;94.10;;;;;;5007817;28;20265;-68
2023/03/08 08:26:15;;;;;;;11.45;8.20;;;7.20;94.00;;;;;;5005224;28;20439;-68
2023/03/08 08:28:42;;;;;;;10.55;8.75;;;7.30;94.60;;;;;;5006578;28;20226;-67
2023/03/08 08:31:19;;;;;;;9.07;7.45;;;7.40;94.50;;;;;;5008741;28;20248;-74
2023/03/08 08:33:45;;;;;;;10.65;8.95;;;7.30;94.20;;;;;;5001891;28;20190;-67
2023/03/08 08:36:14;;;;;;;11.37;7.70;;;7.20;94.40;;;;;;5007215;28;20190;-68
2023/03/08 08:38:42;;;;;;;10.13;8.45;;;7.30;94.90;;;;;;5006210;28;20317;-69
2023/03/08 08:41:08;;;;;;;10.05;8.10;;;7.20;94.60;;;;;;5006074;28;20179;-68
2023/03/08 08:43:35;;;;;;;11.98;8.93;;;7.20;95.10;;;;;;5005684;28;20190;-68
2023/03/08 08:46:01;;;;;;;13.02;8.02;;;7.60;95.40;;;;;;5007844;28;20187;-68
2023/03/08 08:48:27;;;;;;;9.32;7.63;;;7.60;94.90;;;;;;5036681;28;20749;-66
2023/03/08 08:50:53;;;;;;;11.90;9.32;;;7.50;94.70;;;;;;5006832;28;20244;-70
2023/03/08 08:53:20;;;;;;;11.75;8.35;;;7.50;94.80;;;;;;5007799;28;20197;-72
2023/03/08 08:55:45;;;;;;;11.00;8.95;;;7.40;94.40;;;;;;5006011;28;20274;-73
2023/03/08 08:58:12;;;;;;;10.77;9.30;;;7.10;94.80;;;;;;5007882;28;20708;-75
2023/03/08 09:00:37;;;;;;;11.93;8.05;;;7.90;95.90;;;;;;5009329;28;20229;-77
2023/03/08 09:03:04;;;;;;;11.30;9.27;;;8.00;96.20;;;;;;5009851;28;20649;-74
2023/03/08 09:05:31;;;;;;;10.95;8.95;;;7.90;96.10;;;;;;5011869;28;20191;-75
2023/03/08 09:07:58;;;;;;;10.23;7.68;;;8.10;95.00;;;;;;5010995;28;20245;-77
2023/03/08 09:10:25;;;;;;;9.93;8.02;;;8.00;94.70;;;;;;5008953;28;20211;-74
2023/03/08 09:12:51;;;;;;;11.25;8.35;;;8.10;94.60;;;;;;5009003;28;20186;-74
2023/03/08 09:15:16;;;;;;;11.13;9.47;;;8.10;95.40;;;;;;5010899;28;20275;-75
2023/03/08 09:17:42;;;;;;;11.87;8.17;;;7.90;95.00;;;;;;5009544;28;20199;-74
2023/03/08 09:20:09;;;;;;;9.80;8.27;;;7.70;95.70;;;;;;5010423;28;20298;-73
2023/03/08 09:22:38;;;;;;;12.95;8.57;;;7.90;95.30;;;;;;5010917;28;20187;-67
2023/03/08 09:25:05;;;;;;;10.55;9.15;;;7.80;95.00;;;;;;5001602;28;20202;-67
2023/03/08 09:27:31;;;;;;;12.05;9.98;;;8.00;95.30;;;;;;5009357;28;20188;-70
2023/03/08 09:29:57;;;;;;;12.93;8.60;;;8.10;95.70;;;;;;5008994;28;20207;-69
2023/03/08 09:32:24;;;;;;;13.77;10.73;;;8.40;94.80;;;;;;5006366;28;20218;-73
2023/03/08 09:34:51;;;;;;;15.55;9.45;;;8.10;94.40;;;;;;5007597;28;20219;-72
2023/03/08 09:37:16;;;;;;;10.75;9.50;;;8.10;94.00;;;;;;5010533;28;20190;-72
2023/03/08 09:39:43;;;;;;;13.07;10.17;;;8.20;93.90;;;;;;5010162;28;20195;-69
2023/03/08 09:42:26;;;;;;;11.75;8.40;;;8.10;94.90;;;;;;5009703;28;20978;-69
2023/03/08 09:45:17;;;;;;;12.30;9.23;;;8.60;95.40;;;;;;5008183;28;20665;-68
2023/03/08 09:47:47;;;;;;;12.77;9.90;;;8.50;94.30;;;;;;5007077;28;20330;-68
2023/03/08 09:50:16;;;;;;;20.38;11.20;;;8.50;94.30;;;;;;5008984;28;20206;-68
2023/03/08 09:53:14;;;;;;;12.43;10.10;;;8.50;94.30;;;;;;5009985;28;20676;-68
2023/03/08 09:56:14;;;;;;;12.23;9.95;;;8.70;94.00;;;;;;5008397;28;20660;-69
2023/03/08 09:58:42;;;;;;;11.32;9.38;;;8.70;93.30;;;;;;5012419;28;20586;-69
2023/03/08 10:01:26;;;;;;;12.27;10.05;;;8.70;93.50;;;;;;5007948;28;20183;-69
2023/03/08 10:04:06;;;;;;;12.38;9.57;;;9.40;94.10;;;;;;5007495;28;20191;-74
2023/03/08 10:06:49;;;;;;;11.60;9.32;;;8.90;93.70;;;;;;5042147;28;20563;-74
2023/03/08 10:09:30;;;;;;;11.00;8.90;;;9.00;93.80;;;;;;5008474;28;20269;-73
2023/03/08 10:12:10;;;;;;;10.05;7.90;;;9.40;93.80;;;;;;5009759;28;20257;-74
2023/03/08 10:14:48;;;;;;;10.80;7.55;;;9.60;93.70;;;;;;5011255;28;20192;-74
2023/03/08 10:17:24;;;;;;;9.27;7.68;;;9.70;94.10;;;;;;5007571;28;20185;-73
2023/03/08 10:19:53;;;;;;;7.47;6.20;;;9.70;94.30;;;;;;5017650;28;20257;-68
2023/03/08 10:22:27;;;;;;;6.07;5.40;;;9.90;95.00;;;;;;5006096;28;20258;-68
2023/03/08 10:25:17;;;;;;;6.65;5.68;;;9.70;95.70;;;;;;5007579;28;20274;-69
2023/03/08 10:27:46;;;;;;;6.60;5.55;;;9.60;96.50;;;;;;5009435;28;20177;-68
2023/03/08 10:30:18;;;;;;;5.90;4.97;;;9.80;96.60;;;;;;5008784;28;20215;-70
2023/03/08 10:32:46;;;;;;;5.43;4.40;;;10.10;96.30;;;;;;5038526;28;20660;-70
2023/03/08 10:35:12;;;;;;;5.20;4.70;;;9.90;97.00;;;;;;5009645;28;20188;-71
2023/03/08 10:37:38;;;;;;;6.20;4.85;;;10.10;97.10;;;;;;5008374;28;20185;-68
2023/03/08 10:40:12;;;;;;;6.40;4.78;;;10.70;97.80;;;;;;5007056;28;20200;-70
2023/03/08 10:42:45;;;;;;;5.25;3.97;;;10.30;97.60;;;;;;5008107;28;20218;-67
2023/03/08 10:45:20;;;;;;;7.50;4.28;;;10.40;97.40;;;;;;5008782;28;20203;-70
2023/03/08 10:48:01;;;;;;;5.18;4.07;;;10.70;97.30;;;;;;5003141;28;20291;-72
2023/03/08 10:50:32;;;;;;;4.55;4.10;;;11.00;97.10;;;;;;5006919;28;20224;-71
2023/03/08 10:53:18;;;;;;;6.25;3.97;;;11.20;97.00;;;;;;5008324;28;20640;-71
2023/03/08 10:55:50;;;;;;;6.55;4.15;;;11.70;96.40;;;;;;5010821;28;20183;-71
2023/03/08 10:58:37;;;;;;;4.78;3.95;;;12.00;95.70;;;;;;5007136;28;20195;-73
2023/03/08 11:01:24;;;;;;;4.10;2.75;;;12.50;95.40;;;;;;5039032;28;20340;-72
2023/03/08 11:04:05;;;;;;;3.60;3.30;;;12.80;94.90;;;;;;5006881;28;20183;-72
2023/03/08 11:06:36;;;;;;;3.33;2.70;;;12.80;94.80;;;;;;5004369;28;20668;-70
2023/03/08 11:09:03;;;;;;;2.92;2.60;;;13.20;94.80;;;;;;5006410;28;20297;-67
2023/03/08 11:11:40;;;;;;;9.88;6.97;;;13.00;94.60;;;;;;5007143;28;20213;-65
2023/03/08 11:14:09;;;;;;;4.72;2.63;;;13.20;94.70;;;;;;5007791;28;20785;-66
2023/03/08 11:17:05;;;;;;;7.60;2.53;;;13.50;94.40;;;;;;5008104;28;20183;-69
2023/03/08 11:19:45;;;;;;;2.47;2.00;;;13.30;94.10;;;;;;5007997;28;20305;-68
2023/03/08 11:22:47;;;;;;;2.28;1.70;;;13.30;94.70;;;;;;5007403;28;20194;-68
2023/03/08 11:25:24;;;;;;;1.25;1.15;;;13.30;94.90;;;;;;5002781;28;20202;-68
2023/03/08 11:28:07;;;;;;;1.80;1.63;;;13.20;95.10;;;;;;5005452;28;20313;-69
2023/03/08 11:30:43;;;;;;;1.40;1.30;;;13.00;95.50;;;;;;5004337;28;20214;-67
2023/03/08 11:33:30;;;;;;;1.30;1.20;;;12.80;95.70;;;;;;5007586;28;20572;-67
2023/03/08 11:36:31;;;;;;;3.05;1.23;;;12.80;96.00;;;;;;5008309;28;20528;-67
2023/03/08 11:39:19;;;;;;;1.38;1.25;;;12.70;96.20;;;;;;5002468;28;20330;-68
2023/03/08 11:42:04;;;;;;;1.60;1.40;;;12.70;96.40;;;;;;5005346;28;20226;-66
2023/03/08 11:44:58;;;;;;;1.30;1.20;;;12.80;96.60;;;;;;5008159;28;20218;-67
2023/03/08 11:47:52;;;;;;;4.85;1.60;;;13.10;96.40;;;;;;5009514;28;20285;-67
2023/03/08 11:50:21;;;;;;;4.75;1.70;;;12.90;96.20;;;;;;5006892;28;20215;-67
2023/03/08 11:52:59;;;;;;;4.05;1.10;;;13.10;96.50;;;;;;5008916;28;20203;-70
2023/03/08 11:56:02;;;;;;;3.63;1.55;;;13.50;96.60;;;;;;5004457;28;20618;-69
2023/03/08 11:58:39;;;;;;;2.45;2.25;;;13.00;96.30;;;;;;5008555;28;20191;-71
2023/03/08 12:01:21;;;;;;;2.33;1.52;;;13.00;96.40;;;;;;5006017;28;20183;-70
2023/03/08 12:03:52;;;;;;;1.38;1.25;;;13.10;97.00;;;;;;5008187;28;20653;-70
2023/03/08 12:06:33;;;;;;;1.42;1.33;;;12.40;96.40;;;;;;5006892;28;20525;-69
2023/03/08 12:09:17;;;;;;;2.45;1.42;;;13.00;96.70;;;;;;5008115;28;20738;-67
2023/03/08 12:12:08;;;;;;;4.20;1.42;;;12.90;96.70;;;;;;5007094;28;20293;-67
2023/03/08 12:14:56;;;;;;;1.55;1.45;;;13.10;97.00;;;;;;5003708;28;20218;-68
2023/03/08 12:17:29;;;;;;;1.58;1.27;;;13.00;97.10;;;;;;5001652;28;20199;-72
2023/03/08 12:19:55;;;;;;;4.25;1.60;;;13.00;97.10;;;;;;5000501;28;20556;-69
2023/03/08 12:22:41;;;;;;;2.00;1.70;;;13.00;97.10;;;;;;5006531;28;20195;-72
2023/03/08 12:25:25;;;;;;;1.33;1.23;;;13.30;97.00;;;;;;5001141;28;20441;-71
2023/03/08 12:28:12;;;;;;;1.17;1.08;;;13.50;96.80;;;;;;5007898;28;20244;-70
2023/03/08 12:31:00;;;;;;;2.40;1.60;;;13.40;96.70;;;;;;5006192;28;20790;-69
2023/03/08 12:33:29;;;;;;;4.55;1.45;;;13.60;96.50;;;;;;5007349;28;20789;-67
2023/03/08 12:36:00;;;;;;;3.75;1.95;;;13.30;96.30;;;;;;5012763;28;20182;-69
2023/03/08 12:38:45;;;;;;;2.10;1.38;;;13.50;96.40;;;;;;5009902;28;20183;-69
2023/03/08 12:41:23;;;;;;;1.77;1.05;;;13.60;96.50;;;;;;5010348;28;20186;-67
2023/03/08 12:43:59;;;;;;;1.75;1.52;;;13.60;96.50;;;;;;5009449;28;20191;-69
2023/03/08 12:46:25;;;;;;;1.00;0.90;;;13.70;96.80;;;;;;5007615;28;20258;-68
2023/03/08 12:48:52;;;;;;;2.37;1.63;;;13.40;96.80;;;;;;5005846;28;20301;-69
2023/03/08 12:51:31;;;;;;;1.20;1.10;;;13.60;96.70;;;;;;5011332;28;20492;-69
2023/03/08 12:54:02;;;;;;;1.55;1.13;;;14.10;96.70;;;;;;5007343;28;20183;-69
2023/03/08 12:56:36;;;;;;;2.53;1.50;;;14.30;96.40;;;;;;5009738;28;20233;-69
2023/03/08 12:59:26;;;;;;;3.95;1.58;;;14.30;95.80;;;;;;5005750;28;20338;-69
2023/03/08 13:01:58;;;;;;;1.55;1.13;;;14.70;95.50;;;;;;5010153;28;20191;-70
2023/03/08 13:04:25;;;;;;;1.00;0.90;;;14.90;95.10;;;;;;5012462;28;20309;-69